Time;durP1;ratioP1;P1;durP2;ratioP2;P2;SDS_P1;SDS_P2;PMS_P1;PMS_P2;Temp;Humidity;BMP_temperature;BMP_pressure;BME280_temperature;BME280_humidity;BME280_pressure;Samples;Min_cycle;Max_cycle;Signal;HPM_P1;HPM_P2
2022/12/18 00:01:18;;;;;;;39.15;17.48;;;6.50;54.60;;;;;;4265626;28;10000577;-80
2022/12/18 00:03:44;;;;;;;34.97;15.75;;;6.30;54.40;;;;;;4947888;28;20549;-81
2022/12/18 00:06:11;;;;;;;36.30;16.73;;;6.40;54.00;;;;;;4957928;28;20162;-80
2022/12/18 00:08:37;;;;;;;37.55;16.00;;;5.90;55.20;;;;;;4957647;28;20133;-80
2022/12/18 00:11:07;;;;;;;41.40;18.15;;;6.00;55.20;;;;;;4973974;28;20119;-80
2022/12/18 00:13:34;;;;;;;36.42;18.05;;;6.20;54.80;;;;;;4974889;28;20053;-82
2022/12/18 00:16:07;;;;;;;34.85;16.35;;;6.00;55.00;;;;;;4957691;28;20151;-81
2022/12/18 00:18:32;;;;;;;36.20;16.25;;;5.90;55.30;;;;;;4957738;28;20030;-81
2022/12/18 00:21:00;;;;;;;37.15;16.55;;;6.00;55.30;;;;;;4957688;28;20033;-80
2022/12/18 00:23:26;;;;;;;42.00;17.45;;;5.80;55.40;;;;;;4957657;28;20113;-82
2022/12/18 00:25:52;;;;;;;36.58;16.95;;;6.00;55.10;;;;;;4957646;28;20042;-81
2022/12/18 00:28:18;;;;;;;40.85;18.15;;;6.10;54.80;;;;;;4974504;28;20034;-81
2022/12/18 00:30:44;;;;;;;38.47;17.10;;;6.10;54.70;;;;;;4974559;28;20162;-82
2022/12/18 00:33:10;;;;;;;41.08;16.80;;;6.10;54.40;;;;;;4956912;28;20475;-81
2022/12/18 00:35:35;;;;;;;41.83;18.08;;;5.90;54.70;;;;;;4957527;28;20041;-81
2022/12/18 00:38:01;;;;;;;38.80;18.50;;;5.90;55.20;;;;;;4974819;28;20029;-80
2022/12/18 00:40:27;;;;;;;38.45;16.42;;;6.00;55.10;;;;;;4974397;28;20143;-81
2022/12/18 00:42:55;;;;;;;49.63;21.77;;;6.20;54.90;;;;;;4974598;28;20050;-82
2022/12/18 00:45:31;;;;;;;39.35;18.60;;;6.40;54.30;;;;;;4972538;28;20030;-81
2022/12/18 00:47:57;;;;;;;37.58;19.17;;;6.40;53.90;;;;;;4957114;28;20030;-79
2022/12/18 00:50:24;;;;;;;41.55;18.23;;;6.30;54.20;;;;;;4974516;28;20108;-81
2022/12/18 00:52:50;;;;;;;36.60;16.33;;;6.20;54.20;;;;;;4965718;28;20041;-82
2022/12/18 00:55:16;;;;;;;42.25;19.10;;;6.20;54.60;;;;;;4973448;28;20109;-82
2022/12/18 00:57:42;;;;;;;35.80;16.92;;;6.30;54.50;;;;;;4973324;28;20467;-83
2022/12/18 01:00:11;;;;;;;37.85;16.48;;;6.50;54.20;;;;;;4955487;28;20033;-82
2022/12/18 01:02:37;;;;;;;38.88;16.25;;;6.40;54.10;;;;;;4973388;28;20038;-83
2022/12/18 01:05:02;;;;;;;41.05;17.67;;;6.40;53.60;;;;;;4973181;28;20023;-81
2022/12/18 01:07:28;;;;;;;36.50;16.60;;;6.10;54.60;;;;;;4957333;28;20034;-83
2022/12/18 01:09:54;;;;;;;36.80;16.13;;;6.00;55.00;;;;;;4957060;28;20023;-84
2022/12/18 01:12:19;;;;;;;39.15;16.95;;;6.20;54.30;;;;;;4974404;28;20030;-82
2022/12/18 01:14:45;;;;;;;39.25;16.33;;;6.10;54.00;;;;;;4972520;28;20034;-82
2022/12/18 01:17:11;;;;;;;36.40;16.70;;;6.10;54.00;;;;;;4972368;28;20034;-84
2022/12/18 01:19:36;;;;;;;39.85;17.45;;;6.20;53.90;;;;;;4957623;28;20037;-83
2022/12/18 01:22:03;;;;;;;37.17;17.48;;;6.20;54.20;;;;;;4957243;28;20023;-82
2022/12/18 01:24:28;;;;;;;38.80;18.08;;;6.10;53.70;;;;;;4971776;28;20028;-81
2022/12/18 01:26:54;;;;;;;36.70;16.35;;;6.10;54.40;;;;;;4957019;28;20023;-83
2022/12/18 01:29:20;;;;;;;40.00;17.15;;;6.40;54.00;;;;;;4955596;28;20039;-82
2022/12/18 01:31:45;;;;;;;37.63;16.70;;;6.60;53.50;;;;;;4973281;28;20031;-83
2022/12/18 01:34:11;;;;;;;39.72;16.98;;;6.80;52.80;;;;;;4974439;28;20031;-81
2022/12/18 01:36:38;;;;;;;38.53;16.10;;;6.80;52.40;;;;;;4976815;28;20031;-80
2022/12/18 01:39:07;;;;;;;39.13;17.10;;;6.40;53.10;;;;;;4960345;28;20383;-82
2022/12/18 01:44:46;;;;;;;34.85;16.05;;;6.10;53.80;;;;;;4977871;28;20121;-83
2022/12/18 01:47:21;;;;;;;35.47;15.40;;;6.30;53.60;;;;;;4977723;28;20027;-84
2022/12/18 01:49:47;;;;;;;35.55;15.75;;;6.00;53.50;;;;;;4977413;28;20077;-87
2022/12/18 01:52:13;;;;;;;34.88;15.90;;;6.00;54.20;;;;;;4977424;28;20027;-85
2022/12/18 01:54:39;;;;;;;39.58;16.33;;;6.10;54.10;;;;;;4960367;28;20031;-84
2022/12/18 01:57:05;;;;;;;36.00;16.90;;;6.20;53.40;;;;;;4976197;28;20084;-88
2022/12/18 01:59:33;;;;;;;36.63;16.40;;;6.20;53.90;;;;;;4977970;28;20050;-86
2022/12/18 02:01:59;;;;;;;40.33;18.42;;;6.00;54.00;;;;;;4959236;28;20035;-86
2022/12/18 02:04:27;;;;;;;38.50;17.08;;;5.90;54.40;;;;;;4960085;28;20027;-87
2022/12/18 02:07:16;;;;;;;35.47;15.40;;;5.80;54.60;;;;;;4960000;28;20022;-86
2022/12/18 02:09:48;;;;;;;38.40;16.60;;;6.00;54.50;;;;;;4976028;28;20042;-82
2022/12/18 02:12:24;;;;;;;35.20;16.17;;;6.00;54.40;;;;;;4959852;28;20066;-84
2022/12/18 02:14:56;;;;;;;35.28;15.45;;;6.00;54.00;;;;;;4959611;28;20034;-82
2022/12/18 02:17:27;;;;;;;36.63;15.65;;;6.20;54.40;;;;;;4976915;28;20019;-81
2022/12/18 02:20:16;;;;;;;37.80;17.08;;;6.40;53.70;;;;;;4977003;28;20022;-81
2022/12/18 02:22:57;;;;;;;36.08;15.32;;;6.40;53.50;;;;;;4959654;28;20023;-82
2022/12/18 02:26:00;;;;;;;41.20;16.67;;;6.40;53.10;;;;;;4959665;28;20449;-82
2022/12/18 02:28:30;;;;;;;39.50;16.38;;;6.20;53.40;;;;;;4975810;28;20146;-81
2022/12/18 02:31:00;;;;;;;36.85;15.88;;;6.20;53.30;;;;;;4959454;28;20023;-82
2022/12/18 02:33:29;;;;;;;38.15;17.60;;;6.30;53.90;;;;;;4959642;28;20039;-82
2022/12/18 02:35:56;;;;;;;39.97;17.65;;;6.40;53.30;;;;;;4975252;28;20027;-86
2022/12/18 02:39:01;;;;;;;38.15;16.55;;;6.60;52.60;;;;;;4975135;28;20019;-82
2022/12/18 02:45:21;;;;;;;35.55;16.30;;;6.40;53.30;;;;;;4897986;29;20044;-85
2022/12/18 02:48:21;;;;;;;38.85;16.20;;;6.60;52.80;;;;;;4910377;29;20048;-90
2022/12/18 02:51:14;;;;;;;;;;;;;;;;;;;;;
2022/12/18 02:54:43;;;;;;;;;;;;;;;;;;;;;
2022/12/18 02:57:45;;;;;;;39.17;15.68;;;6.80;52.50;;;;;;4906480;29;20040;-89
2022/12/18 03:00:58;;;;;;;39.08;16.73;;;6.90;52.30;;;;;;4915445;29;20578;-82
2022/12/18 03:04:03;;;;;;;36.17;16.25;;;6.70;52.50;;;;;;4859985;29;20044;-82
2022/12/18 03:06:53;;;;;;;;;;;;;;;;;;;;;
2022/12/18 03:10:27;;;;;;;;;;;;;;;;;;;;;
2022/12/18 03:14:00;;;;;;;39.05;17.63;;;6.80;52.60;;;;;;4823935;29;20050;-86
2022/12/18 03:17:02;;;;;;;37.67;16.85;;;6.80;52.60;;;;;;4823129;29;20049;-82
2022/12/18 03:30:28;;;;;;;38.92;16.60;;;6.60;53.10;;;;;;4751727;30;20063;-82
2022/12/18 03:33:27;;;;;;;42.17;17.45;;;6.60;53.40;;;;;;4751451;30;20110;-88
2022/12/18 03:36:20;;;;;;;40.88;17.60;;;6.40;53.40;;;;;;4751733;30;20458;-88
2022/12/18 03:47:22;;;;;;;;;;;;;;;;;;;;;
2022/12/18 03:50:01;;;;;;;41.88;17.67;;;5.60;55.40;;;;;;4747923;30;20577;-87
2022/12/18 03:56:00;;;;;;;40.88;17.40;;;5.50;55.40;;;;;;4769073;29;20039;-83
2022/12/18 04:12:00;;;;;;;41.33;17.30;;;5.10;56.40;;;;;;4823692;29;20119;-85
2022/12/18 04:15:14;;;;;;;42.00;17.98;;;5.40;55.90;;;;;;4807358;29;20503;-86
2022/12/18 04:25:57;;;;;;;;;;;;;;;;;;;;;
2022/12/18 04:49:33;;;;;;;57.88;25.98;;;5.30;55.30;;;;;;4715054;30;20124;-84
2022/12/18 07:02:12;;;;;;;52.15;22.13;;;4.60;56.70;;;;;;4458484;27;10001795;-84
2022/12/18 07:05:24;;;;;;;;;;;;;;;;;;;;;
2022/12/18 07:07:48;;;;;;;56.15;21.27;;;4.10;57.70;;;;;;5091514;28;20024;-83
2022/12/18 07:10:16;;;;;;;58.30;22.23;;;4.10;58.10;;;;;;5090131;28;20466;-84
2022/12/18 07:13:00;;;;;;;52.80;20.73;;;4.10;58.40;;;;;;5071673;28;20027;-84
2022/12/18 07:15:31;;;;;;;51.30;20.92;;;4.30;57.50;;;;;;5088438;28;20024;-83
2022/12/18 07:17:56;;;;;;;53.33;23.08;;;4.20;57.60;;;;;;5072668;28;20090;-84
2022/12/18 07:21:15;;;;;;;60.35;23.23;;;4.40;57.80;;;;;;5088652;28;20031;-83
2022/12/18 07:24:07;;;;;;;56.80;23.88;;;4.80;56.70;;;;;;5085292;28;20028;-83
2022/12/18 07:26:33;;;;;;;53.03;21.67;;;4.90;56.70;;;;;;5092483;28;20028;-84
2022/12/18 07:28:58;;;;;;;57.78;22.52;;;5.10;56.30;;;;;;5101073;28;20039;-86
2022/12/18 07:34:53;;;;;;;55.90;23.20;;;5.10;56.20;;;;;;5097566;28;20031;-84
2022/12/18 07:37:18;;;;;;;61.78;24.13;;;5.10;55.80;;;;;;5076961;28;20036;-84
2022/12/18 07:49:26;;;;;;;58.60;23.70;;;5.40;55.90;;;;;;5030150;28;20064;-83
2022/12/18 07:55:37;;;;;;;56.30;22.67;;;5.00;57.30;;;;;;5029793;28;20169;-83
2022/12/18 08:01:25;;;;;;;48.08;20.60;;;5.10;57.40;;;;;;4994372;28;20045;-84
2022/12/18 08:03:50;;;;;;;53.88;22.05;;;5.40;56.70;;;;;;4992234;28;20022;-84
2022/12/18 08:06:16;;;;;;;54.03;21.45;;;5.60;56.10;;;;;;4990103;28;20034;-83
2022/12/18 08:12:10;;;;;;;52.45;22.20;;;6.10;54.70;;;;;;4949784;28;20497;-85
2022/12/18 08:17:57;;;;;;;838.58;507.75;;;6.30;54.00;;;;;;4887982;29;20039;-84
2022/12/18 08:20:23;;;;;;;485.67;356.88;;;5.90;54.80;;;;;;4882611;29;20052;-83
2022/12/18 08:22:48;;;;;;;291.35;184.52;;;6.00;55.20;;;;;;4881246;29;20041;-84
2022/12/18 08:25:17;;;;;;;154.05;91.55;;;6.00;55.00;;;;;;4896303;29;20076;-80
2022/12/18 08:27:43;;;;;;;120.50;69.13;;;5.80;55.40;;;;;;4898540;29;20044;-82
2022/12/18 08:30:09;;;;;;;61.45;29.17;;;5.80;56.20;;;;;;4898836;29;20048;-82
2022/12/18 08:32:35;;;;;;;261.55;139.80;;;6.00;55.50;;;;;;4882727;29;20024;-81
2022/12/18 08:35:01;;;;;;;271.77;135.20;;;6.40;55.10;;;;;;4882757;29;20071;-81
2022/12/18 08:37:26;;;;;;;523.42;387.10;;;6.70;55.10;;;;;;4897959;29;20124;-80
2022/12/18 08:39:52;;;;;;;127.97;81.70;;;7.00;53.50;;;;;;4882441;29;20028;-79
2022/12/18 08:45:02;;;;;;;117.78;56.90;;;7.70;52.80;;;;;;4898266;29;20081;-80
2022/12/18 08:47:28;;;;;;;167.63;78.70;;;8.90;51.20;;;;;;4882113;29;20063;-81
2022/12/18 08:49:54;;;;;;;393.90;226.95;;;10.00;49.30;;;;;;4897315;29;20064;-79
2022/12/18 08:52:20;;;;;;;95.72;50.25;;;11.30;48.10;;;;;;4959962;28;20547;-78
2022/12/18 08:54:45;;;;;;;67.68;36.78;;;12.80;46.10;;;;;;4995719;28;20073;-79
2022/12/18 08:57:11;;;;;;;73.20;37.65;;;13.70;44.10;;;;;;4977771;28;20030;-78
2022/12/18 08:59:37;;;;;;;58.33;28.35;;;14.90;43.30;;;;;;4977565;28;20035;-82
2022/12/18 09:02:02;;;;;;;57.80;27.67;;;15.40;42.60;;;;;;4975849;28;20048;-85
2022/12/18 09:04:28;;;;;;;52.30;26.20;;;15.30;42.20;;;;;;4995116;28;20035;-80
2022/12/18 09:06:53;;;;;;;50.85;24.92;;;16.20;41.50;;;;;;4994245;28;20031;-83
2022/12/18 09:09:19;;;;;;;53.85;25.77;;;16.70;40.60;;;;;;4989023;28;20023;-82
2022/12/18 09:11:45;;;;;;;56.65;28.70;;;16.60;40.60;;;;;;4995218;28;20030;-81
2022/12/18 09:14:11;;;;;;;53.40;26.63;;;16.70;40.40;;;;;;4994613;28;20042;-80
2022/12/18 09:16:36;;;;;;;55.00;24.20;;;16.90;40.50;;;;;;4994116;28;20194;-82
2022/12/18 09:19:04;;;;;;;70.78;38.92;;;16.70;40.00;;;;;;4983770;28;20519;-80
2022/12/18 09:21:38;;;;;;;80.63;42.35;;;16.70;40.40;;;;;;4977871;28;20039;-80
2022/12/18 09:24:05;;;;;;;95.15;51.10;;;16.20;40.40;;;;;;4976636;28;20023;-79
2022/12/18 09:26:38;;;;;;;54.22;27.35;;;16.30;40.60;;;;;;4986535;28;20416;-79
2022/12/18 09:29:04;;;;;;;93.47;53.10;;;16.90;40.60;;;;;;4979432;28;20106;-79
2022/12/18 09:31:30;;;;;;;62.05;35.75;;;17.40;39.80;;;;;;4995123;28;20113;-82
2022/12/18 09:33:56;;;;;;;67.50;36.53;;;17.70;39.80;;;;;;4994554;28;20388;-79
2022/12/18 10:20:59;;;;;;;92.63;53.30;;;11.40;46.60;;;;;;5084719;27;1378373;-84
2022/12/18 10:24:00;;;;;;;216.02;128.10;;;16.60;40.80;;;;;;5077841;28;20032;-81
2022/12/18 10:26:26;;;;;;;66.72;39.00;;;17.30;40.40;;;;;;5077784;28;20026;-85
2022/12/18 10:28:53;;;;;;;77.28;47.92;;;18.00;39.60;;;;;;5106849;28;20020;-84
2022/12/18 10:31:24;;;;;;;76.45;44.38;;;18.30;39.10;;;;;;5091096;28;20048;-84
2022/12/18 10:46:41;;;;;;;108.45;68.10;;;18.20;38.80;;;;;;5084426;27;1332272;-84
2022/12/18 10:49:19;;;;;;;86.00;53.75;;;17.50;39.80;;;;;;5110338;28;20111;-82
2022/12/18 10:51:44;;;;;;;139.30;73.65;;;16.50;40.10;;;;;;5092054;28;20027;-82
2022/12/18 10:54:21;;;;;;;120.65;61.50;;;15.90;40.60;;;;;;5090635;28;20455;-80
2022/12/18 10:56:47;;;;;;;114.22;67.88;;;14.90;41.70;;;;;;5110886;28;20048;-81
2022/12/18 11:13:16;;;;;;;92.20;51.67;;;13.30;43.50;;;;;;4780358;27;10001871;-85
2022/12/18 11:15:43;;;;;;;62.40;31.90;;;13.10;44.50;;;;;;5107303;28;20049;-86
2022/12/18 11:18:19;;;;;;;82.80;46.67;;;12.70;45.00;;;;;;5113251;28;20016;-86
2022/12/18 11:20:51;;;;;;;147.77;84.28;;;12.30;45.10;;;;;;5113189;28;20024;-85
2022/12/18 11:56:49;;;;;;;439.60;269.20;;;10.30;48.00;;;;;;6180952;23;20024;-82
2022/12/18 12:19:33;;;;;;;58.47;35.45;;;10.40;47.20;;;;;;5112039;27;20426;-85
2022/12/18 12:22:12;;;;;;;51.63;27.75;;;10.60;47.70;;;;;;5111585;28;20084;-86
2022/12/18 12:24:56;;;;;;;64.68;37.03;;;10.70;47.10;;;;;;5111181;28;20428;-86
2022/12/18 12:27:27;;;;;;;76.50;46.33;;;10.60;47.20;;;;;;5090019;28;20507;-85
2022/12/18 12:30:05;;;;;;;61.03;36.42;;;10.60;46.60;;;;;;5090082;28;20434;-85
2022/12/18 12:32:40;;;;;;;70.80;39.60;;;10.70;47.40;;;;;;5089849;28;20024;-85
2022/12/18 12:35:27;;;;;;;59.22;31.90;;;10.90;46.70;;;;;;5090280;28;20422;-86
2022/12/18 12:38:13;;;;;;;70.45;41.95;;;11.00;46.90;;;;;;5089836;28;20024;-85
2022/12/18 12:40:58;;;;;;;71.07;34.88;;;11.00;46.50;;;;;;5089970;28;20032;-87
2022/12/18 12:43:35;;;;;;;101.35;59.05;;;10.90;46.90;;;;;;5091562;28;20028;-85
2022/12/18 12:46:05;;;;;;;110.05;68.50;;;10.80;46.40;;;;;;5106079;28;20059;-86
2022/12/18 12:48:53;;;;;;;109.40;72.28;;;10.80;46.60;;;;;;5099314;28;20039;-87
2022/12/18 12:51:47;;;;;;;74.32;44.22;;;10.80;46.50;;;;;;5092590;28;20031;-86
2022/12/18 12:54:20;;;;;;;127.97;85.38;;;10.70;46.80;;;;;;5091783;28;20032;-84
2022/12/18 12:58:31;;;;;;;127.68;86.35;;;10.70;46.20;;;;;;5074355;27;1520350;-87
2022/12/18 13:01:08;;;;;;;169.00;108.30;;;10.60;46.80;;;;;;5073200;28;20038;-87
2022/12/18 13:03:51;;;;;;;86.18;52.92;;;10.80;46.70;;;;;;5081926;28;20066;-88
2022/12/18 13:06:32;;;;;;;84.80;50.83;;;11.00;46.40;;;;;;5091749;28;20382;-90
2022/12/18 13:08:58;;;;;;;;;;;11.00;46.10;;;;;;5063351;28;20024;-89
2022/12/18 13:14:35;;;;;;;64.50;34.40;;;11.00;46.60;;;;;;5069677;28;20040;-89
2022/12/18 13:17:29;;;;;;;76.07;48.13;;;10.90;46.50;;;;;;5054923;28;20036;-90
2022/12/18 13:20:18;;;;;;;56.65;29.35;;;10.80;46.60;;;;;;5061846;28;20471;-93
2022/12/18 13:22:50;;;;;;;54.35;25.92;;;10.80;46.80;;;;;;5068095;28;20028;-89
2022/12/18 13:25:32;;;;;;;57.20;28.50;;;10.80;46.90;;;;;;5052268;28;20619;-89
2022/12/18 13:28:11;;;;;;;49.58;26.42;;;10.70;47.10;;;;;;5053348;28;20036;-90
2022/12/18 13:30:57;;;;;;;86.40;55.45;;;10.30;47.20;;;;;;5053347;28;20028;-90
2022/12/18 13:33:27;;;;;;;70.38;36.95;;;10.30;47.70;;;;;;5060978;28;20082;-91
2022/12/18 13:36:00;;;;;;;79.38;44.72;;;10.40;47.30;;;;;;5052781;28;20059;-90
2022/12/18 13:38:33;;;;;;;78.35;42.42;;;10.40;47.20;;;;;;5064846;28;20035;-89
2022/12/18 13:41:24;;;;;;;66.43;39.85;;;10.40;46.90;;;;;;5067928;28;20352;-90
2022/12/18 13:44:09;;;;;;;69.95;36.38;;;10.20;47.30;;;;;;5068298;28;20036;-88
2022/12/18 13:46:49;;;;;;;86.63;48.00;;;10.30;47.30;;;;;;5054052;28;20031;-89
2022/12/18 13:49:22;;;;;;;69.30;40.47;;;10.30;47.60;;;;;;5057681;28;20029;-88
2022/12/18 13:51:51;;;;;;;74.32;39.42;;;10.40;47.60;;;;;;5053047;28;20506;-87
2022/12/18 13:54:24;;;;;;;56.28;27.38;;;10.60;47.70;;;;;;5064947;28;20031;-88
2022/12/18 13:56:50;;;;;;;89.28;46.75;;;10.50;47.00;;;;;;5068645;28;20517;-88
2022/12/18 13:59:23;;;;;;;108.47;54.08;;;10.50;47.40;;;;;;5068410;28;20484;-86
2022/12/18 14:01:58;;;;;;;107.57;58.40;;;10.50;47.50;;;;;;5072060;28;20028;-87
2022/12/18 14:04:26;;;;;;;65.88;32.03;;;10.50;47.50;;;;;;5056890;28;20037;-86
2022/12/18 14:06:58;;;;;;;50.88;25.48;;;10.50;47.50;;;;;;5069849;28;20028;-86
2022/12/18 14:09:28;;;;;;;46.22;23.38;;;10.40;48.40;;;;;;5056004;28;20131;-86
2022/12/18 14:12:56;;;;;;;54.05;25.52;;;9.90;49.60;;;;;;5054204;28;20021;-86
2022/12/18 14:14:47;;;;;;;51.13;25.05;;;9.60;50.10;;;;;;5063487;28;20028;-86
2022/12/18 14:17:14;;;;;;;53.15;25.80;;;9.60;50.30;;;;;;5055682;28;20094;-87
2022/12/18 14:19:49;;;;;;;52.63;24.92;;;9.70;50.20;;;;;;5057809;28;20107;-87
2022/12/18 14:22:21;;;;;;;58.03;27.98;;;9.80;50.00;;;;;;5055160;28;20461;-87
2022/12/18 14:25:04;;;;;;;61.00;28.60;;;9.80;49.90;;;;;;5058181;28;20025;-87
2022/12/18 14:27:30;;;;;;;61.00;29.50;;;9.90;49.80;;;;;;5046537;28;20029;-87
2022/12/18 14:29:55;;;;;;;55.78;26.45;;;9.80;50.10;;;;;;5044866;28;20027;-87
2022/12/18 14:32:22;;;;;;;57.70;25.60;;;9.70;50.30;;;;;;5057673;28;20119;-89
2022/12/18 14:34:50;;;;;;;54.67;24.67;;;9.50;50.30;;;;;;5058221;28;20035;-88
2022/12/18 14:37:22;;;;;;;51.53;22.38;;;9.30;50.80;;;;;;5058599;28;20042;-86
2022/12/18 14:40:09;;;;;;;58.70;26.77;;;9.00;51.30;;;;;;5044240;28;20025;-88
2022/12/18 14:42:36;;;;;;;57.50;25.30;;;9.00;51.30;;;;;;5054319;28;20047;-87
2022/12/18 14:45:50;;;;;;;59.90;25.38;;;8.80;51.60;;;;;;5038208;28;20527;-86
2022/12/18 14:48:40;;;;;;;61.72;27.50;;;8.90;51.80;;;;;;4978045;28;20045;-87
2022/12/18 14:51:21;;;;;;;78.70;35.65;;;9.00;51.80;;;;;;4987246;28;20031;-84
2022/12/18 14:53:54;;;;;;;104.70;47.83;;;9.00;51.90;;;;;;4978584;28;20030;-87
2022/12/18 14:56:32;;;;;;;142.60;62.58;;;8.90;52.10;;;;;;4978193;28;20405;-87
2022/12/18 14:59:22;;;;;;;83.40;35.45;;;9.00;51.90;;;;;;4978321;28;20049;-87
2022/12/18 15:01:59;;;;;;;78.93;35.15;;;9.00;51.50;;;;;;4978399;28;20022;-87
2022/12/18 15:06:30;;;;;;;108.10;44.20;;;8.90;51.30;;;;;;5091839;27;20393;-85
2022/12/18 15:08:56;;;;;;;104.05;45.40;;;8.90;51.50;;;;;;5090252;28;20025;-85
2022/12/18 15:11:44;;;;;;;84.22;38.65;;;8.90;51.40;;;;;;5090401;28;20059;-86
2022/12/18 15:14:22;;;;;;;163.43;74.57;;;8.80;51.60;;;;;;5091565;28;20024;-85
2022/12/18 15:16:53;;;;;;;187.10;88.43;;;8.70;51.90;;;;;;5090193;28;20035;-86
2022/12/18 15:19:21;;;;;;;136.75;66.45;;;8.70;51.70;;;;;;5090041;28;20123;-86
2022/12/18 15:21:47;;;;;;;180.07;85.05;;;8.60;52.00;;;;;;4736053;28;9999670;-85
2022/12/18 15:24:26;;;;;;;119.85;52.50;;;8.60;52.00;;;;;;5069355;28;20475;-87
2022/12/18 15:26:51;;;;;;;86.68;38.55;;;8.70;51.60;;;;;;5069727;28;20032;-86
2022/12/18 15:29:22;;;;;;;97.25;41.63;;;8.70;51.30;;;;;;5069729;28;20119;-87
2022/12/18 15:32:18;;;;;;;96.43;48.85;;;8.50;52.00;;;;;;5068994;28;20048;-87
2022/12/18 15:34:44;;;;;;;569.22;275.48;;;8.40;52.10;;;;;;5069082;28;20406;-87
2022/12/18 15:37:10;;;;;;;417.77;179.35;;;8.50;52.00;;;;;;5069371;28;20532;-88
2022/12/18 15:39:35;;;;;;;104.45;47.90;;;8.60;51.90;;;;;;5069410;28;20021;-88
2022/12/18 15:44:46;;;;;;;73.72;32.33;;;8.60;51.80;;;;;;5070549;28;20086;-89
2022/12/18 15:47:12;;;;;;;71.68;31.98;;;8.60;51.60;;;;;;5068878;28;20029;-89
2022/12/18 15:49:39;;;;;;;73.40;28.42;;;8.60;51.50;;;;;;5068783;28;20032;-88
2022/12/18 15:52:05;;;;;;;64.82;29.02;;;8.60;51.40;;;;;;5072264;28;20020;-87
2022/12/18 15:57:24;;;;;;;60.97;27.00;;;8.40;51.40;;;;;;5070550;28;20032;-89
2022/12/18 15:59:56;;;;;;;55.28;25.80;;;8.20;51.70;;;;;;5068040;28;20054;-87
2022/12/18 16:02:22;;;;;;;59.80;25.98;;;8.10;52.10;;;;;;5077472;28;20470;-91
2022/12/18 16:04:49;;;;;;;59.10;26.92;;;8.00;52.10;;;;;;5089088;28;20406;-87
2022/12/18 16:07:15;;;;;;;67.97;28.80;;;7.80;52.60;;;;;;5085090;28;20017;-87
2022/12/18 16:09:41;;;;;;;69.57;28.45;;;7.70;52.70;;;;;;5067865;28;20033;-87
2022/12/18 16:12:15;;;;;;;58.95;25.88;;;7.80;52.80;;;;;;5071936;28;20056;-91
2022/12/18 16:14:41;;;;;;;66.35;26.58;;;7.90;52.40;;;;;;5069778;28;20128;-88
2022/12/18 16:17:11;;;;;;;70.45;28.30;;;7.80;52.30;;;;;;5057889;28;20098;-91
2022/12/18 16:19:36;;;;;;;72.75;30.38;;;7.80;52.40;;;;;;5072470;28;20115;-91
2022/12/18 16:22:02;;;;;;;82.53;31.27;;;7.90;52.30;;;;;;5068014;28;20455;-89
2022/12/18 16:24:30;;;;;;;65.43;28.30;;;8.00;52.30;;;;;;5061772;28;20109;-89
2022/12/18 16:26:59;;;;;;;70.68;29.77;;;8.00;52.30;;;;;;5055072;28;20535;-83
2022/12/18 16:29:27;;;;;;;106.55;44.58;;;7.90;52.60;;;;;;5065575;28;20021;-88
2022/12/18 16:32:01;;;;;;;131.15;59.03;;;7.70;53.20;;;;;;5062379;28;20056;-88
2022/12/18 16:34:48;;;;;;;87.35;36.90;;;7.70;53.10;;;;;;5055640;28;20029;-87
2022/12/18 16:37:15;;;;;;;90.32;34.53;;;7.90;52.40;;;;;;5055809;28;20037;-87
2022/12/18 16:39:41;;;;;;;94.85;36.20;;;8.00;52.10;;;;;;5055000;28;20028;-89
2022/12/18 16:42:18;;;;;;;90.88;32.42;;;7.80;51.30;;;;;;5072631;28;20060;-88
2022/12/18 16:44:45;;;;;;;85.28;31.30;;;7.50;51.80;;;;;;5074986;28;20067;-90
2022/12/18 16:47:11;;;;;;;77.15;32.65;;;7.40;52.20;;;;;;5073340;28;20032;-90
2022/12/18 16:49:38;;;;;;;95.35;54.65;;;7.40;52.40;;;;;;5057487;28;20074;-91
2022/12/18 16:52:07;;;;;;;79.55;30.63;;;7.30;52.70;;;;;;5064490;28;20501;-88
2022/12/18 16:54:35;;;;;;;67.43;28.55;;;7.20;53.10;;;;;;5054607;28;20025;-87
2022/12/18 16:57:01;;;;;;;67.07;28.30;;;7.20;53.10;;;;;;5055439;28;20110;-88
2022/12/18 16:59:28;;;;;;;83.00;33.00;;;7.40;53.20;;;;;;5074273;28;20036;-88
2022/12/18 17:01:54;;;;;;;85.40;37.55;;;7.50;52.80;;;;;;5060476;28;20529;-88
2022/12/18 17:04:20;;;;;;;78.65;29.15;;;7.50;52.90;;;;;;5068071;28;20052;-89
2022/12/18 17:06:50;;;;;;;87.85;33.17;;;7.60;52.40;;;;;;5069032;28;20040;-86
2022/12/18 17:09:25;;;;;;;69.95;30.42;;;7.30;52.40;;;;;;5062611;28;20177;-87
2022/12/18 17:11:52;;;;;;;98.57;39.67;;;7.20;52.60;;;;;;5070822;28;20032;-87
2022/12/18 17:14:20;;;;;;;113.57;48.70;;;6.90;53.90;;;;;;5065497;28;20123;-89
2022/12/18 17:16:46;;;;;;;106.50;45.80;;;6.70;54.30;;;;;;5073520;28;20025;-88
2022/12/18 17:19:13;;;;;;;83.10;33.53;;;6.90;53.90;;;;;;5056795;28;20047;-90
2022/12/18 17:21:38;;;;;;;78.32;32.08;;;7.10;53.30;;;;;;5059541;28;20618;-88
2022/12/18 17:24:06;;;;;;;77.00;32.17;;;7.10;53.10;;;;;;5053834;28;20017;-88
2022/12/18 17:26:32;;;;;;;86.40;37.28;;;7.00;53.40;;;;;;5054321;28;20037;-89
2022/12/18 17:28:58;;;;;;;72.90;30.73;;;6.90;53.50;;;;;;5072876;28;20020;-88
2022/12/18 17:31:26;;;;;;;75.18;30.73;;;6.60;53.90;;;;;;5064868;28;20028;-87
2022/12/18 17:33:52;;;;;;;74.53;29.40;;;6.50;54.50;;;;;;5053583;28;20058;-88
2022/12/18 17:36:19;;;;;;;72.32;31.65;;;6.50;54.30;;;;;;5058281;28;20036;-89
2022/12/18 17:38:53;;;;;;;71.43;30.05;;;6.50;54.60;;;;;;5059677;28;20097;-88
2022/12/18 17:41:19;;;;;;;75.75;30.80;;;6.70;54.20;;;;;;5058377;28;20029;-88
2022/12/18 17:43:51;;;;;;;78.30;32.75;;;6.80;53.80;;;;;;5054091;28;20143;-89
2022/12/18 17:46:17;;;;;;;83.97;36.10;;;6.90;53.50;;;;;;5059577;28;20033;-87
2022/12/18 17:48:42;;;;;;;82.70;35.55;;;7.00;52.70;;;;;;5062644;28;20025;-87
2022/12/18 17:51:25;;;;;;;72.11;31.10;;;6.90;52.90;;;;;;4981058;23;10002949;-87
2022/12/18 17:53:51;;;;;;;80.60;36.10;;;6.70;54.30;;;;;;5045700;28;20339;-89
2022/12/18 17:56:19;;;;;;;85.53;36.13;;;6.50;53.50;;;;;;5052864;28;20060;-90
2022/12/18 17:58:44;;;;;;;79.32;34.45;;;6.60;53.30;;;;;;5048984;28;20064;-88
2022/12/18 18:01:17;;;;;;;78.53;33.80;;;6.60;53.40;;;;;;5042673;28;20041;-89
2022/12/18 18:03:43;;;;;;;74.18;34.78;;;6.50;55.10;;;;;;5034320;28;20033;-90
2022/12/18 18:06:09;;;;;;;78.25;34.63;;;6.50;54.10;;;;;;5033784;28;20476;-88
2022/12/18 18:08:35;;;;;;;77.43;34.55;;;6.60;53.70;;;;;;5039473;28;20029;-86
2022/12/18 18:14:00;;;;;;;82.22;34.42;;;6.70;53.00;;;;;;5033909;28;20029;-86
2022/12/18 18:16:28;;;;;;;68.95;28.80;;;6.60;53.00;;;;;;5033320;28;20119;-89
2022/12/18 18:18:57;;;;;;;69.57;29.77;;;6.60;53.10;;;;;;5022659;28;20029;-86
2022/12/18 18:21:23;;;;;;;74.05;29.75;;;6.40;53.70;;;;;;5028932;28;20614;-87
2022/12/18 18:23:49;;;;;;;69.10;30.25;;;6.40;53.80;;;;;;5033860;28;20028;-86
2022/12/18 18:26:15;;;;;;;74.07;30.40;;;6.30;53.60;;;;;;5034487;28;20566;-85
2022/12/18 18:28:41;;;;;;;68.30;29.63;;;6.40;53.50;;;;;;5062026;28;20120;-88
2022/12/18 18:31:08;;;;;;;73.88;27.27;;;6.40;53.20;;;;;;5023673;28;20072;-85
2022/12/18 18:33:34;;;;;;;82.75;29.67;;;6.40;53.00;;;;;;5026456;28;20013;-87
2022/12/18 18:36:01;;;;;;;71.50;29.75;;;6.50;52.80;;;;;;5033241;28;20642;-87
2022/12/18 18:38:28;;;;;;;76.32;31.20;;;6.50;52.80;;;;;;5031749;28;20029;-91
2022/12/18 18:41:01;;;;;;;78.60;34.38;;;6.30;53.10;;;;;;5032450;28;20018;-85
2022/12/18 18:43:27;;;;;;;80.07;35.55;;;5.80;54.20;;;;;;5031022;28;20460;-86
2022/12/18 18:45:58;;;;;;;79.35;34.95;;;5.90;53.90;;;;;;5027989;28;20103;-88
2022/12/18 18:48:23;;;;;;;;;;;6.00;53.60;;;;;;5026891;28;20010;-85
2022/12/18 18:51:19;;;;;;;75.65;30.70;;;6.20;52.80;;;;;;5030655;28;19928;-85
2022/12/18 18:53:46;;;;;;;86.55;34.83;;;6.40;52.40;;;;;;5021184;28;20036;-83
2022/12/18 18:56:16;;;;;;;89.22;36.55;;;6.40;52.30;;;;;;5017755;28;20120;-85
2022/12/18 18:58:42;;;;;;;87.20;36.78;;;6.40;51.80;;;;;;5019205;28;20021;-88
2022/12/18 19:01:11;;;;;;;72.18;33.10;;;6.30;52.00;;;;;;5021658;28;20384;-84
2022/12/18 19:03:38;;;;;;;84.82;33.65;;;6.30;52.30;;;;;;5021191;28;20030;-85
2022/12/18 19:06:06;;;;;;;71.28;30.02;;;6.20;52.40;;;;;;5030729;28;20547;-85
2022/12/18 19:08:34;;;;;;;78.78;32.78;;;6.20;52.40;;;;;;5019734;28;20025;-87
2022/12/18 19:11:01;;;;;;;71.80;30.17;;;6.00;53.70;;;;;;5022721;28;20032;-85
2022/12/18 19:13:30;;;;;;;71.47;30.42;;;5.90;53.10;;;;;;5024160;28;20025;-85
2022/12/18 19:16:03;;;;;;;72.05;30.77;;;6.00;53.00;;;;;;5024598;28;20036;-84
2022/12/18 19:18:29;;;;;;;70.57;29.90;;;6.00;53.30;;;;;;5027859;28;20057;-83
2022/12/18 19:21:02;;;;;;;72.65;31.52;;;5.80;53.30;;;;;;5049796;28;20049;-89